createdAt,value
2018-11-02T00:02:22.783Z,16.25
2018-11-02T00:04:58.559Z,16.16
2018-11-02T00:07:34.109Z,16.13
2018-11-02T00:10:09.605Z,16.55
2018-11-02T00:12:51.331Z,16.86
2018-11-02T00:15:31.951Z,16.95
2018-11-02T00:18:07.794Z,17.22
2018-11-02T00:20:43.810Z,16.74
2018-11-02T00:23:19.930Z,16.62
2018-11-02T00:25:55.405Z,16.31
2018-11-02T00:28:31.129Z,16.38
2018-11-02T00:31:08.301Z,16.17
2018-11-02T00:33:44.538Z,16.26
2018-11-02T00:36:20.553Z,16.26
2018-11-02T00:38:56.012Z,16.44
2018-11-02T00:41:31.544Z,16.18
2018-11-02T00:44:07.826Z,16.14
2018-11-02T00:46:43.703Z,16.41
2018-11-02T00:49:19.197Z,16.95
2018-11-02T00:51:54.713Z,17.36
2018-11-02T00:54:30.191Z,17.47
2018-11-02T00:57:06.227Z,17.79
2018-11-02T00:59:41.992Z,17.89
2018-11-02T01:02:17.577Z,17.81
2018-11-02T01:04:53.495Z,17.63
2018-11-02T01:07:29.306Z,17.82
2018-11-02T01:10:05.869Z,17.85
2018-11-02T01:12:41.309Z,17.02
2018-11-02T01:15:17.178Z,13.94
2018-11-02T01:17:52.893Z,15.77
2018-11-02T01:20:33.189Z,15.92
2018-11-02T01:23:08.649Z,16.01
2018-11-02T01:25:44.262Z,15.70
2018-11-02T01:28:20.024Z,15.36
2018-11-02T01:30:55.673Z,14.66
2018-11-02T01:33:38.577Z,15.44
2018-11-02T01:36:14.372Z,15.81
2018-11-02T01:38:50.017Z,15.28
2018-11-02T01:41:25.530Z,14.92
2018-11-02T01:44:01.633Z,15.24
2018-11-02T01:46:37.263Z,15.69
2018-11-02T01:49:13.042Z,15.92
2018-11-02T01:51:48.552Z,16.09
2018-11-02T01:54:24.236Z,16.44
2018-11-02T01:56:59.896Z,16.44
2018-11-02T01:59:35.423Z,16.51
2018-11-02T02:02:11.217Z,15.66
2018-11-02T02:04:46.906Z,15.00
2018-11-02T02:07:22.771Z,15.32
2018-11-02T02:09:58.690Z,15.00
2018-11-02T02:12:34.119Z,15.61
2018-11-02T02:15:10.649Z,15.47
2018-11-02T02:17:59.922Z,14.45
2018-11-02T02:20:35.640Z,13.81
2018-11-02T02:23:11.536Z,13.44
2018-11-02T02:25:47.238Z,13.24
2018-11-02T02:28:23.072Z,13.23
2018-11-02T02:30:58.886Z,12.98
2018-11-02T02:33:34.797Z,12.58
2018-11-02T02:36:10.561Z,12.63
2018-11-02T02:38:46.432Z,12.75
2018-11-02T02:41:22.153Z,12.86
2018-11-02T02:43:57.734Z,13.30
2018-11-02T02:46:33.584Z,13.29
2018-11-02T02:49:09.231Z,13.14
2018-11-02T02:51:44.622Z,13.03
2018-11-02T02:54:20.600Z,12.89
2018-11-02T02:56:56.104Z,12.75
2018-11-02T02:59:31.975Z,12.67
2018-11-02T03:02:07.545Z,12.56
2018-11-02T03:04:43.055Z,12.58
2018-11-02T03:07:19.439Z,12.77
2018-11-02T03:09:54.967Z,12.78
2018-11-02T03:12:30.867Z,12.78
2018-11-02T03:15:06.919Z,12.80
2018-11-02T03:17:43.301Z,12.63
2018-11-02T03:20:39.002Z,12.72
2018-11-02T03:23:14.521Z,12.86
2018-11-02T03:25:50.364Z,13.04
2018-11-02T03:28:26.012Z,13.10
2018-11-02T03:31:01.669Z,13.04
2018-11-02T03:33:37.369Z,13.08
2018-11-02T03:36:12.677Z,13.33
2018-11-02T03:38:48.380Z,13.95
2018-11-02T03:41:23.821Z,13.60
2018-11-02T03:43:59.725Z,13.19
2018-11-02T03:46:35.249Z,13.84
2018-11-02T03:49:10.877Z,14.01
2018-11-02T03:51:46.827Z,14.20
2018-11-02T03:54:22.352Z,14.47
2018-11-02T03:56:58.574Z,14.20
2018-11-02T03:59:34.363Z,14.23
2018-11-02T04:02:10.046Z,14.71
2018-11-02T04:04:46.341Z,13.80
2018-11-02T04:07:22.420Z,13.03
2018-11-02T04:09:57.961Z,12.80
2018-11-02T04:12:33.902Z,12.61
2018-11-02T04:15:09.550Z,12.74
2018-11-02T04:17:50.022Z,12.90
2018-11-02T04:20:25.645Z,12.47
2018-11-02T04:23:06.629Z,12.78
2018-11-02T04:25:42.254Z,12.67
2018-11-02T04:28:17.688Z,12.59
2018-11-02T04:30:53.321Z,12.59
2018-11-02T04:33:29.078Z,13.09
2018-11-02T04:36:04.817Z,13.48
2018-11-02T04:38:40.413Z,13.63
2018-11-02T04:41:16.160Z,13.81
2018-11-02T04:43:52.526Z,13.95
2018-11-02T04:46:28.052Z,14.15
2018-11-02T04:49:04.750Z,14.91
2018-11-02T04:51:40.172Z,15.38
2018-11-02T04:54:16.237Z,15.23
2018-11-02T04:56:52.006Z,15.32
2018-11-02T04:59:27.421Z,14.98
2018-11-02T05:02:02.789Z,14.98
2018-11-02T05:04:38.334Z,14.99
2018-11-02T05:07:14.073Z,14.54
2018-11-02T05:09:49.499Z,14.71
2018-11-02T05:12:25.327Z,14.53
2018-11-02T05:15:00.777Z,14.51
2018-11-02T05:17:36.272Z,14.46
2018-11-02T05:20:11.873Z,14.35
2018-11-02T05:22:47.586Z,14.44
2018-11-02T05:25:23.241Z,13.99
2018-11-02T05:27:58.647Z,14.01
2018-11-02T05:30:34.639Z,14.01
2018-11-02T05:33:10.152Z,13.91
2018-11-02T05:35:46.293Z,13.99
2018-11-02T05:38:21.885Z,14.07
2018-11-02T05:40:57.264Z,14.17
2018-11-02T05:43:32.643Z,14.38
2018-11-02T05:46:08.584Z,14.71
2018-11-02T05:48:44.281Z,14.79
2018-11-02T05:51:20.024Z,15.45
2018-11-02T05:53:55.956Z,15.77
2018-11-02T05:56:31.804Z,15.85
2018-11-02T05:59:07.383Z,15.71
2018-11-02T06:01:43.493Z,15.32
2018-11-02T06:04:19.303Z,15.61
2018-11-02T06:06:55.813Z,16.05
2018-11-02T06:09:31.884Z,16.23
2018-11-02T06:12:07.490Z,16.55
2018-11-02T06:14:43.437Z,16.82
2018-11-02T06:17:18.829Z,16.97
2018-11-02T06:19:54.423Z,16.78
2018-11-02T06:22:30.072Z,16.08
2018-11-02T06:25:05.847Z,16.47
2018-11-02T06:27:41.366Z,16.62
2018-11-02T06:30:17.271Z,16.88
2018-11-02T06:32:52.753Z,16.08
2018-11-02T06:35:28.670Z,15.21
2018-11-02T06:38:04.809Z,14.91
2018-11-02T06:40:40.252Z,14.25
2018-11-02T06:43:15.928Z,14.17
2018-11-02T06:45:51.769Z,14.24
2018-11-02T06:48:27.200Z,14.34
2018-11-02T06:51:03.585Z,14.30
2018-11-02T06:53:39.380Z,14.84
2018-11-02T06:56:15.103Z,14.94
2018-11-02T06:58:50.823Z,15.00
2018-11-02T07:01:26.504Z,14.84
2018-11-02T07:04:01.997Z,15.02
2018-11-02T07:06:37.774Z,15.42
2018-11-02T07:09:13.456Z,15.56
2018-11-02T07:11:49.651Z,15.99
2018-11-02T07:14:25.176Z,16.01
2018-11-02T07:17:00.996Z,16.55
2018-11-02T07:19:36.585Z,16.44
2018-11-02T07:22:12.313Z,16.46
2018-11-02T07:24:48.344Z,15.71
2018-11-02T07:27:24.070Z,15.66
2018-11-02T07:29:59.653Z,15.65
2018-11-02T07:32:35.318Z,16.20
2018-11-02T07:35:11.308Z,16.23
2018-11-02T07:37:47.408Z,16.12
2018-11-02T07:40:23.080Z,16.38
2018-11-02T07:42:58.724Z,16.54
2018-11-02T07:45:34.319Z,16.93
2018-11-02T07:48:09.934Z,17.21
2018-11-02T07:50:45.621Z,17.66
2018-11-02T07:53:21.114Z,17.72
2018-11-02T07:55:56.853Z,17.88
2018-11-02T07:58:32.673Z,17.68
2018-11-02T08:01:09.343Z,17.98
2018-11-02T08:03:45.617Z,17.86
2018-11-02T08:06:21.570Z,17.88
2018-11-02T08:08:57.401Z,17.94
2018-11-02T08:11:32.950Z,18.14
2018-11-02T08:14:08.817Z,18.58
2018-11-02T08:16:44.707Z,18.18
2018-11-02T08:19:20.396Z,18.47
2018-11-02T08:21:56.137Z,18.22
2018-11-02T08:24:31.933Z,17.80
2018-11-02T08:27:08.431Z,17.88
2018-11-02T08:29:44.217Z,18.23
2018-11-02T08:32:19.824Z,18.90
2018-11-02T08:34:55.534Z,19.14
2018-11-02T08:37:31.077Z,19.09
2018-11-02T08:40:07.731Z,18.87
2018-11-02T08:42:44.000Z,18.93
2018-11-02T08:45:19.591Z,18.72
2018-11-02T08:47:55.161Z,18.51
2018-11-02T08:50:31.022Z,19.10
2018-11-02T08:53:06.424Z,21.52
2018-11-02T08:55:41.911Z,26.21
2018-11-02T08:58:17.630Z,27.61
2018-11-02T09:00:53.413Z,27.33
2018-11-02T09:03:29.333Z,28.38
2018-11-02T09:06:05.141Z,31.39
2018-11-02T09:08:40.660Z,34.45
2018-11-02T09:11:16.586Z,32.70
2018-11-02T09:13:52.577Z,30.96
2018-11-02T09:16:28.112Z,29.81
2018-11-02T09:19:04.162Z,29.84
2018-11-02T09:21:39.836Z,31.37
2018-11-02T09:24:15.209Z,33.74
2018-11-02T09:26:51.361Z,35.78
2018-11-02T09:29:27.097Z,34.96
2018-11-02T09:32:03.028Z,33.31
2018-11-02T09:34:38.885Z,32.30
2018-11-02T09:37:14.784Z,29.69
2018-11-02T09:39:50.871Z,29.78
2018-11-02T09:42:26.941Z,32.62
2018-11-02T09:45:02.697Z,32.53
2018-11-02T09:47:38.482Z,32.59
2018-11-02T09:50:14.231Z,34.10
2018-11-02T09:52:50.057Z,33.63
2018-11-02T09:55:25.521Z,34.27
2018-11-02T09:58:01.604Z,33.90
2018-11-02T10:00:37.669Z,34.29
2018-11-02T10:03:14.093Z,33.75
2018-11-02T10:05:50.056Z,34.54
2018-11-02T10:08:25.768Z,35.74
2018-11-02T10:11:01.587Z,36.11
2018-11-02T10:13:38.307Z,33.20
2018-11-02T10:16:13.733Z,33.04
2018-11-02T10:18:49.805Z,33.09
2018-11-02T10:21:25.828Z,33.29
2018-11-02T10:24:02.008Z,29.41
2018-11-02T10:26:37.871Z,31.46
2018-11-02T10:29:13.944Z,31.78
2018-11-02T10:31:49.802Z,29.24
2018-11-02T10:34:27.089Z,25.84
2018-11-02T10:37:02.946Z,24.27
2018-11-02T10:39:38.863Z,23.78
2018-11-02T10:42:14.764Z,23.23
2018-11-02T10:44:51.100Z,21.07
2018-11-02T10:47:27.111Z,23.46
2018-11-02T10:50:03.229Z,23.35
2018-11-02T10:52:39.819Z,22.62
2018-11-02T10:55:15.443Z,22.59
2018-11-02T10:57:51.220Z,22.81
2018-11-02T11:00:32.842Z,22.94
2018-11-02T11:03:08.387Z,23.45
2018-11-02T11:05:44.240Z,24.09
2018-11-02T11:08:20.692Z,23.72
2018-11-02T11:10:57.119Z,23.60
2018-11-02T11:13:33.093Z,23.58
2018-11-02T11:16:08.959Z,23.60
2018-11-02T11:18:44.498Z,24.40
2018-11-02T11:21:20.652Z,25.29
2018-11-02T11:23:56.638Z,24.81
2018-11-02T11:26:32.841Z,24.98
2018-11-02T11:29:08.779Z,24.53
2018-11-02T11:31:44.638Z,24.13
2018-11-02T11:34:20.553Z,23.84
2018-11-02T11:36:56.271Z,24.51
2018-11-02T11:39:32.709Z,25.30
2018-11-02T11:42:08.562Z,25.70
2018-11-02T11:44:44.498Z,25.84
2018-11-02T11:47:20.373Z,25.60
2018-11-02T11:49:56.091Z,25.57
2018-11-02T11:52:31.805Z,24.79
2018-11-02T11:55:09.240Z,24.26
2018-11-02T11:57:45.113Z,23.74
2018-11-02T12:00:23.342Z,24.05
2018-11-02T12:02:59.118Z,22.63
2018-11-02T12:05:34.871Z,22.79
2018-11-02T12:08:10.593Z,22.41
2018-11-02T12:10:46.630Z,22.93
2018-11-02T12:13:22.374Z,23.40
2018-11-02T12:15:58.249Z,22.76
2018-11-02T12:18:33.917Z,23.39
2018-11-02T12:21:09.819Z,21.88
2018-11-02T12:23:45.365Z,21.39
2018-11-02T12:26:21.156Z,21.70
2018-11-02T12:28:56.911Z,21.53
2018-11-02T12:31:32.623Z,21.81
2018-11-02T12:34:08.541Z,22.11
2018-11-02T12:36:44.433Z,23.37
2018-11-02T12:39:20.261Z,24.05
2018-11-02T12:41:56.056Z,23.69
2018-11-02T12:44:31.728Z,24.78
2018-11-02T12:47:07.584Z,25.17
2018-11-02T12:49:44.244Z,24.89
2018-11-02T12:52:19.871Z,25.56
2018-11-02T12:54:55.806Z,26.00
2018-11-02T12:57:31.929Z,25.76
2018-11-02T13:00:10.836Z,25.53
2018-11-02T13:02:47.734Z,25.22
2018-11-02T13:05:23.304Z,25.32
2018-11-02T13:07:59.307Z,26.08
2018-11-02T13:10:34.884Z,26.72
2018-11-02T13:13:10.793Z,25.88
2018-11-02T13:15:46.730Z,26.30
2018-11-02T13:18:22.718Z,26.35
2018-11-02T13:20:58.365Z,26.15
2018-11-02T13:23:34.181Z,25.56
2018-11-02T13:26:10.109Z,25.24
2018-11-02T13:28:45.776Z,24.52
2018-11-02T13:31:21.476Z,24.11
2018-11-02T13:33:57.521Z,23.57
2018-11-02T13:36:34.542Z,23.07
2018-11-02T13:39:12.105Z,23.07
2018-11-02T13:41:47.664Z,23.27
2018-11-02T13:44:23.399Z,23.22
2018-11-02T13:46:59.391Z,23.23
2018-11-02T13:49:35.173Z,22.92
2018-11-02T13:52:11.629Z,22.33
2018-11-02T13:54:47.462Z,22.58
2018-11-02T13:57:22.889Z,21.90
2018-11-02T13:59:58.807Z,21.88
2018-11-02T14:02:34.534Z,21.68
2018-11-02T14:05:12.172Z,21.66
2018-11-02T14:07:47.720Z,21.67
2018-11-02T14:10:23.465Z,22.03
2018-11-02T14:12:59.432Z,21.75
2018-11-02T14:15:35.460Z,21.77
2018-11-02T14:18:11.412Z,21.81
2018-11-02T14:20:47.147Z,21.65
2018-11-02T14:23:23.015Z,21.20
2018-11-02T14:25:58.940Z,20.89
2018-11-02T14:28:34.453Z,21.04
2018-11-02T14:31:10.327Z,21.18
2018-11-02T14:33:45.860Z,21.47
2018-11-02T14:36:21.584Z,21.22
2018-11-02T14:38:57.922Z,20.86
2018-11-02T14:41:33.622Z,20.60
2018-11-02T14:44:11.932Z,20.73
2018-11-02T14:46:47.474Z,20.83
2018-11-02T14:49:23.084Z,20.60
2018-11-02T14:51:58.939Z,20.69
2018-11-02T14:54:34.995Z,20.88
2018-11-02T14:57:10.491Z,20.82
2018-11-02T14:59:47.455Z,20.55
2018-11-02T15:02:23.842Z,20.50
2018-11-02T15:04:59.451Z,20.24
2018-11-02T15:07:34.969Z,20.31
2018-11-02T15:10:11.055Z,20.12
2018-11-02T15:12:46.728Z,19.86
2018-11-02T15:15:22.607Z,19.71
2018-11-02T15:17:58.366Z,19.56
2018-11-02T15:20:33.972Z,19.51
2018-11-02T15:23:10.698Z,19.30
2018-11-02T15:25:46.472Z,19.32
2018-11-02T15:28:22.181Z,19.25
2018-11-02T15:30:57.768Z,19.26
2018-11-02T15:33:33.417Z,19.17
2018-11-02T15:36:09.486Z,19.34
2018-11-02T15:38:45.550Z,19.67
2018-11-02T15:41:22.413Z,20.22
2018-11-02T15:43:58.193Z,20.64
2018-11-02T15:46:33.896Z,20.94
2018-11-02T15:49:09.515Z,21.12
2018-11-02T15:51:45.386Z,21.23
2018-11-02T15:54:20.795Z,21.15
2018-11-02T15:56:56.628Z,20.77
2018-11-02T15:59:32.488Z,20.55
2018-11-02T16:02:08.222Z,20.48
2018-11-02T16:04:44.217Z,20.35
2018-11-02T16:07:20.129Z,20.39
2018-11-02T16:09:56.091Z,20.68
2018-11-02T16:12:31.862Z,20.79
2018-11-02T16:15:11.046Z,20.71
2018-11-02T16:17:46.756Z,20.89
2018-11-02T16:20:22.288Z,20.94
2018-11-02T16:22:59.998Z,21.30
2018-11-02T16:25:36.927Z,21.39
2018-11-02T16:28:12.756Z,21.50
2018-11-02T16:30:48.369Z,21.51
2018-11-02T16:33:25.436Z,21.15
2018-11-02T16:36:02.621Z,21.38
2018-11-02T16:38:39.519Z,21.50
2018-11-02T16:41:16.190Z,21.28
2018-11-02T16:43:52.685Z,20.51
2018-11-02T16:46:28.482Z,21.57
2018-11-02T16:49:04.870Z,21.66
2018-11-02T16:51:42.079Z,21.57
2018-11-02T16:54:18.577Z,21.39
2018-11-02T16:56:55.122Z,21.38
2018-11-02T16:59:31.498Z,21.49
2018-11-02T17:02:07.345Z,21.51
2018-11-02T17:04:48.200Z,20.54
2018-11-02T17:07:27.011Z,21.17
2018-11-02T17:10:02.529Z,20.76
2018-11-02T17:12:39.239Z,20.70
2018-11-02T17:15:15.403Z,20.61
2018-11-02T17:17:54.594Z,20.80
2018-11-02T17:20:32.943Z,20.51
2018-11-02T17:23:11.069Z,20.15
2018-11-02T17:25:47.165Z,20.65
2018-11-02T17:28:22.833Z,20.79
2018-11-02T17:30:58.991Z,20.96
2018-11-02T17:33:37.292Z,20.96
2018-11-02T17:36:13.817Z,21.09
2018-11-02T17:38:49.561Z,21.14
2018-11-02T17:41:25.539Z,21.16
2018-11-02T17:44:04.153Z,21.21
2018-11-02T17:46:40.408Z,20.19
2018-11-02T17:49:15.869Z,19.08
2018-11-02T17:51:51.496Z,19.79
2018-11-02T17:54:34.576Z,20.32
2018-11-02T17:57:12.864Z,20.60
2018-11-02T17:59:52.021Z,20.79
2018-11-02T18:02:29.746Z,20.77
2018-11-02T18:05:06.060Z,20.78
2018-11-02T18:07:41.868Z,20.80
2018-11-02T18:10:19.391Z,20.89
2018-11-02T18:12:56.504Z,21.07
2018-11-02T18:15:34.331Z,21.08
2018-11-02T18:18:12.273Z,20.65
2018-11-02T18:20:47.875Z,20.23
2018-11-02T18:23:23.740Z,20.16
2018-11-02T18:25:59.629Z,20.28
2018-11-02T18:28:35.870Z,20.38
2018-11-02T18:31:12.264Z,20.40
2018-11-02T18:33:48.227Z,20.42
2018-11-02T18:36:23.986Z,20.54
2018-11-02T18:39:01.434Z,19.85
2018-11-02T18:41:37.345Z,20.09
2018-11-02T18:44:13.348Z,20.46
2018-11-02T18:46:49.661Z,20.75
2018-11-02T18:49:25.092Z,20.94
2018-11-02T18:52:01.992Z,20.82
2018-11-02T18:54:37.649Z,20.72
2018-11-02T18:57:15.274Z,20.87
2018-11-02T18:59:51.612Z,20.87
2018-11-02T19:02:27.201Z,20.84
2018-11-02T19:05:03.101Z,20.83
2018-11-02T19:07:40.880Z,20.71
2018-11-02T19:10:16.439Z,20.17
2018-11-02T19:12:52.509Z,19.26
2018-11-02T19:15:28.721Z,19.17
2018-11-02T19:18:04.862Z,19.27
2018-11-02T19:20:44.045Z,19.74
2018-11-02T19:23:23.509Z,20.11
2018-11-02T19:26:00.371Z,20.04
2018-11-02T19:28:36.300Z,19.92
2018-11-02T19:31:12.266Z,20.19
2018-11-02T19:33:56.540Z,20.38
2018-11-02T19:36:35.361Z,20.49
2018-11-02T19:39:12.475Z,20.43
2018-11-02T19:41:51.707Z,20.56
2018-11-02T19:44:35.324Z,20.71
2018-11-02T19:47:11.630Z,20.79
2018-11-02T19:49:48.029Z,20.80
2018-11-02T19:52:27.841Z,20.72
2018-11-02T19:55:04.254Z,20.68
2018-11-02T19:57:44.454Z,20.55
2018-11-02T20:00:22.734Z,20.59
2018-11-02T20:03:01.869Z,20.70
2018-11-02T20:05:38.421Z,20.78
2018-11-02T20:08:14.815Z,20.69
2018-11-02T20:10:50.389Z,20.61
2018-11-02T20:13:26.961Z,20.65
2018-11-02T20:16:03.550Z,20.71
2018-11-02T20:18:41.215Z,20.77
2018-11-02T20:21:16.887Z,20.68
2018-11-02T20:23:53.314Z,20.17
2018-11-02T20:26:29.173Z,20.04
2018-11-02T20:29:04.964Z,20.16
2018-11-02T20:31:41.735Z,20.09
2018-11-02T20:34:18.358Z,20.02
2018-11-02T20:36:55.530Z,20.11
2018-11-02T20:39:32.077Z,20.26
2018-11-02T20:42:08.125Z,20.37
2018-11-02T20:44:45.175Z,20.30
2018-11-02T20:47:21.026Z,20.13
2018-11-02T20:49:57.022Z,19.46
2018-11-02T20:52:33.053Z,19.43
2018-11-02T20:55:10.062Z,19.53
2018-11-02T20:57:45.892Z,19.59
2018-11-02T21:00:24.229Z,19.87
2018-11-02T21:03:00.266Z,19.68
2018-11-02T21:05:38.918Z,19.69
2018-11-02T21:08:14.645Z,19.47
2018-11-02T21:10:50.519Z,19.55
2018-11-02T21:13:26.556Z,19.65
2018-11-02T21:16:02.105Z,19.85
2018-11-02T21:18:38.256Z,19.96
2018-11-02T21:21:14.455Z,19.91
2018-11-02T21:23:50.185Z,20.04
2018-11-02T21:26:25.926Z,17.05
2018-11-02T21:29:01.835Z,20.14
2018-11-02T21:31:37.413Z,20.21
2018-11-02T21:34:13.182Z,20.16
2018-11-02T21:36:48.917Z,20.23
2018-11-02T21:39:25.011Z,20.30
2018-11-02T21:42:04.964Z,20.18
2018-11-02T21:44:40.976Z,19.75
2018-11-02T21:47:17.454Z,19.62
2018-11-02T21:49:53.202Z,19.68
2018-11-02T21:52:28.557Z,19.73
2018-11-02T21:55:05.337Z,19.68
2018-11-02T21:57:41.732Z,19.42
2018-11-02T22:00:20.506Z,19.51
2018-11-02T22:02:58.710Z,19.50
2018-11-02T22:05:35.005Z,19.49
2018-11-02T22:08:10.842Z,19.61
2018-11-02T22:10:46.308Z,19.88
2018-11-02T22:13:21.828Z,20.07
2018-11-02T22:15:58.145Z,20.22
2018-11-02T22:18:33.884Z,20.16
2018-11-02T22:21:09.749Z,19.92
2018-11-02T22:23:45.668Z,20.08
2018-11-02T22:26:21.525Z,19.95
2018-11-02T22:28:57.449Z,20.07
2018-11-02T22:31:33.353Z,20.07
2018-11-02T22:34:09.326Z,20.01
2018-11-02T22:36:45.075Z,20.09
2018-11-02T22:39:20.926Z,20.19
2018-11-02T22:41:56.476Z,20.27
2018-11-02T22:44:32.109Z,19.58
2018-11-02T22:47:08.107Z,18.94
2018-11-02T22:49:44.167Z,19.03
2018-11-02T22:52:20.052Z,18.84
2018-11-02T22:54:55.792Z,18.65
2018-11-02T22:57:31.195Z,18.38
2018-11-02T23:00:13.701Z,17.88
2018-11-02T23:02:49.530Z,17.59
2018-11-02T23:05:25.595Z,17.32
2018-11-02T23:08:01.378Z,17.25
2018-11-02T23:10:37.139Z,17.16
2018-11-02T23:13:12.989Z,16.95
2018-11-02T23:15:48.428Z,16.48
2018-11-02T23:18:24.224Z,16.49
2018-11-02T23:20:59.952Z,15.39
2018-11-02T23:23:36.008Z,16.35
2018-11-02T23:26:11.848Z,15.81
2018-11-02T23:28:47.683Z,15.64
2018-11-02T23:31:23.516Z,15.66
2018-11-02T23:33:59.320Z,15.36
2018-11-02T23:36:35.587Z,15.27
2018-11-02T23:39:11.435Z,15.29
2018-11-02T23:41:47.382Z,15.33
2018-11-02T23:44:23.096Z,15.86
2018-11-02T23:46:58.833Z,16.02
2018-11-02T23:49:34.322Z,15.59
2018-11-02T23:52:10.073Z,15.28
2018-11-02T23:54:45.773Z,15.01
2018-11-02T23:57:21.369Z,14.82
2018-11-02T23:59:57.436Z,14.76
